メインページ
METAR-TAF:

METAR-TAF

空港 :

フナフティ島, ツバル

フナフティ国際空港

緯度: 08-31S, 経度: 179-13E, 海抜: 1m

現時点の気象観測

当レポートは34分前の10:00(UTC)に作成
変向風 2kt
気温 28°C
湿度 84%
気圧 1009 hPa
視程10km以上
高度2000ftの雲はほとんどない

METAR: NGFU 231000Z VRB02KT 9999 FEW020 28/25 Q1009

時間: 22:34 (10:34 UTC)

予報

当レポートは5時間23分前の05:11(UTC)に作成
予報は23日の 06時(UTC)から 24日の 06時(UTC)まで有効
西/南西の風 8kt
視程10km以上
高度1800ftの雲は散在している
高度4000ftの千切れ雲あり
確率 40% :
23日の 06時(UTC)から 23日の 24時(UTC)まで一時的に
視程: 3000m
高度800ftの千切れ雲あり
高度1700ftの雲は散在している, 積乱雲.
激しい雷雨, 雨

TAF: NGFU 230511Z 2306/2406 25008KT 9999 SCT018 BKN040 PROB40 TEMPO 2306/2324 3000 TSRA BKN008 SCT017CB

4,000以上の空港の気象観測と天気予報(METAR報とTAF報)

利用可能な観測所は地図上に黄色い丸と赤い丸で示す。

丸の上にカーソルを重ねると観測所名を参照できる。

次にクリックすると気象観測と天気予報を参照できる。

マップの切り替え:黒色「×」印の緑ボタンをクリックして拡大、「-」印の緑ボタンをクリックして縮小、緑色の三角印をクリックして隣りの地図に切り替え


METAR-TAF: